TimeEST,TemperatureF,Dew PointF,Humidity,Sea Level PressureIn,VisibilityMPH,Wind Direction,Wind SpeedMPH,Gust SpeedMPH,PrecipitationIn,Events,Conditions,WindDirDegrees,DateUTC
12:15 AM,9.9,8.6,95,30.34,10.0,North,-9999.0,-,N/A,,Clear,0,2013-02-02 05:15:00
12:35 AM,9.9,8.6,95,30.33,10.0,North,-9999.0,-,N/A,,Clear,0,2013-02-02 05:35:00
12:55 AM,10.2,9.1,95,30.32,10.0,North,-9999.0,-,N/A,,Clear,0,2013-02-02 05:55:00
1:15 AM,11.1,9.7,94,30.32,10.0,North,-9999.0,-,N/A,,Clear,0,2013-02-02 06:15:00
1:35 AM,11.3,10.0,95,30.31,10.0,North,-9999.0,-,N/A,,Clear,0,2013-02-02 06:35:00
1:55 AM,11.3,10.4,96,30.32,10.0,North,-9999.0,-,N/A,,Clear,0,2013-02-02 06:55:00
2:15 AM,11.3,10.4,96,30.32,10.0,North,-9999.0,-,N/A,,Clear,0,2013-02-02 07:15:00
2:35 AM,11.5,10.4,95,30.31,10.0,North,-9999.0,-,N/A,,Clear,0,2013-02-02 07:35:00
2:55 AM,11.3,10.0,95,30.32,10.0,North,-9999.0,-,N/A,,Clear,0,2013-02-02 07:55:00
3:15 AM,10.9,9.5,94,30.31,10.0,North,-9999.0,-,N/A,,Clear,0,2013-02-02 08:15:00
3:35 AM,10.8,9.3,94,30.31,10.0,North,-9999.0,-,N/A,,Clear,0,2013-02-02 08:35:00
3:55 AM,10.4,9.3,95,30.31,10.0,North,-9999.0,-,N/A,,Clear,0,2013-02-02 08:55:00
4:15 AM,10.4,9.1,95,30.30,10.0,North,-9999.0,-,N/A,,Clear,0,2013-02-02 09:15:00
4:35 AM,10.0,8.6,94,30.30,10.0,North,-9999.0,-,N/A,,Clear,0,2013-02-02 09:35:00
4:55 AM,9.9,8.6,95,30.30,10.0,North,-9999.0,-,N/A,,Clear,0,2013-02-02 09:55:00
5:15 AM,9.5,8.4,95,30.30,10.0,North,-9999.0,-,N/A,,Clear,0,2013-02-02 10:15:00
5:35 AM,9.5,8.2,95,30.30,10.0,North,-9999.0,-,N/A,,Clear,0,2013-02-02 10:35:00
5:55 AM,9.5,8.4,95,30.29,10.0,North,-9999.0,-,N/A,,Clear,0,2013-02-02 10:55:00
6:15 AM,9.5,8.2,95,30.29,10.0,North,-9999.0,-,N/A,,Clear,0,2013-02-02 11:15:00
6:35 AM,9.5,8.2,95,30.28,10.0,North,-9999.0,-,N/A,,Clear,0,2013-02-02 11:35:00
6:55 AM,9.5,8.2,95,30.29,10.0,North,-9999.0,-,N/A,,Clear,0,2013-02-02 11:55:00
7:15 AM,9.7,8.4,95,30.28,10.0,North,-9999.0,-,N/A,,Clear,0,2013-02-02 12:15:00
7:35 AM,10.0,8.6,94,30.28,10.0,North,-9999.0,-,N/A,,Scattered Clouds,0,2013-02-02 12:35:00
7:55 AM,10.9,9.5,94,30.28,10.0,North,-9999.0,-,N/A,,Overcast,0,2013-02-02 12:55:00
8:15 AM,12.6,11.1,94,30.28,10.0,North,-9999.0,-,N/A,,Overcast,0,2013-02-02 13:15:00
8:35 AM,14.5,13.1,94,30.27,10.0,North,-9999.0,-,N/A,,Overcast,0,2013-02-02 13:35:00
8:55 AM,16.5,14.5,92,30.26,10.0,North,-9999.0,-,N/A,,Overcast,0,2013-02-02 13:55:00
9:15 AM,18.1,15.8,91,30.25,10.0,North,-9999.0,-,N/A,,Overcast,0,2013-02-02 14:15:00
9:35 AM,19.4,16.2,87,30.25,10.0,North,-9999.0,-,N/A,,Overcast,0,2013-02-02 14:35:00
9:55 AM,21.2,16.7,83,30.25,10.0,North,-9999.0,-,N/A,,Overcast,0,2013-02-02 14:55:00
10:15 AM,23.0,17.4,79,30.23,10.0,North,-9999.0,-,N/A,,Overcast,0,2013-02-02 15:15:00
10:35 AM,24.6,17.4,74,30.23,7.0,North,-9999.0,-,N/A,Snow,Light Snow,0,2013-02-02 15:35:00
10:55 AM,24.6,19.4,81,30.23,2.0,North,-9999.0,-,N/A,Snow,Light Snow,0,2013-02-02 15:55:00
11:15 AM,24.4,20.7,86,30.23,1.5,North,-9999.0,-,N/A,Snow,Light Snow,0,2013-02-02 16:15:00
11:35 AM,24.1,21.7,91,30.22,0.8,North,-9999.0,-,N/A,Snow,Light Snow,0,2013-02-02 16:35:00
11:55 AM,24.8,22.3,90,30.22,1.0,North,-9999.0,-,N/A,Snow,Light Snow,0,2013-02-02 16:55:00
12:15 PM,24.4,21.9,90,30.20,1.0,North,-9999.0,-,N/A,Snow,Light Snow,0,2013-02-02 17:15:00
12:35 PM,24.3,22.6,94,30.18,0.2,North,-9999.0,-,N/A,Snow,Snow,0,2013-02-02 17:35:00
12:55 PM,24.8,23.5,95,30.15,0.5,North,-9999.0,-,N/A,Snow,Snow,0,2013-02-02 17:55:00
1:15 PM,25.7,24.3,94,30.13,0.5,North,-9999.0,-,N/A,Snow,Snow,0,2013-02-02 18:15:00
1:35 PM,26.4,24.6,93,30.10,0.5,North,-9999.0,-,N/A,Snow,Snow,0,2013-02-02 18:35:00
1:55 PM,27.5,25.5,92,30.09,1.0,North,-9999.0,-,N/A,Snow,Light Snow,0,2013-02-02 18:55:00
2:15 PM,27.5,25.7,93,30.08,2.0,North,-9999.0,-,N/A,Snow,Light Snow,0,2013-02-02 19:15:00
2:35 PM,27.9,26.1,93,30.06,4.0,North,-9999.0,-,N/A,Snow,Light Snow,0,2013-02-02 19:35:00
2:55 PM,28.8,26.6,92,30.06,7.0,North,-9999.0,-,N/A,Snow,Light Snow,0,2013-02-02 19:55:00
3:15 PM,29.7,27.1,90,30.05,7.0,North,-9999.0,-,N/A,Snow,Light Snow,0,2013-02-02 20:15:00
3:35 PM,30.0,27.7,91,30.05,5.0,North,-9999.0,-,N/A,Snow,Light Snow,0,2013-02-02 20:35:00
3:55 PM,31.1,28.4,90,30.05,3.0,North,-9999.0,-,N/A,Snow,Light Snow,0,2013-02-02 20:55:00
4:15 PM,31.6,28.9,90,30.04,2.5,North,-9999.0,-,N/A,Snow,Light Snow,0,2013-02-02 21:15:00
4:35 PM,31.6,29.3,91,30.04,4.0,North,-9999.0,-,N/A,Snow,Light Snow,0,2013-02-02 21:35:00
4:55 PM,31.5,29.3,92,30.04,10.0,North,-9999.0,-,N/A,,Overcast,0,2013-02-02 21:55:00
5:15 PM,31.6,29.7,92,30.04,2.0,North,-9999.0,-,N/A,Snow,Light Snow,0,2013-02-02 22:15:00
5:35 PM,31.3,29.8,94,30.04,2.0,North,-9999.0,-,N/A,Snow,Light Snow,0,2013-02-02 22:35:00
5:55 PM,31.1,29.8,95,30.04,7.0,North,-9999.0,-,N/A,Snow,Light Snow,0,2013-02-02 22:55:00
6:35 PM,30.7,29.8,96,30.04,5.0,North,-9999.0,-,N/A,Snow,Light Snow,0,2013-02-02 23:35:00
6:55 PM,30.6,30.0,98,30.04,10.0,North,-9999.0,-,N/A,,Overcast,0,2013-02-02 23:55:00
7:15 PM,30.6,30.2,99,30.04,10.0,North,-9999.0,-,N/A,,Overcast,0,2013-02-03 00:15:00
7:35 PM,30.7,30.4,99,30.04,7.0,North,-9999.0,-,N/A,Snow,Light Snow,0,2013-02-03 00:35:00
7:55 PM,30.6,29.7,96,30.04,4.0,North,-9999.0,-,N/A,Snow,Light Snow,0,2013-02-03 00:55:00
8:15 PM,30.2,30.0,99,30.04,5.0,North,-9999.0,-,N/A,Snow,Light Snow,0,2013-02-03 01:15:00
8:35 PM,30.2,30.2,100,30.04,10.0,North,-9999.0,-,N/A,Snow,Light Snow,0,2013-02-03 01:35:00
8:55 PM,30.6,30.2,99,30.04,10.0,North,-9999.0,-,N/A,,Overcast,0,2013-02-03 01:55:00
9:15 PM,30.6,30.2,99,30.04,7.0,North,-9999.0,-,N/A,Snow,Light Snow,0,2013-02-03 02:15:00
9:35 PM,30.4,29.8,98,30.04,4.0,North,-9999.0,-,N/A,Snow,Light Snow,0,2013-02-03 02:35:00
9:55 PM,30.2,29.8,99,30.04,0.8,North,-9999.0,-,N/A,Snow,Snow,0,2013-02-03 02:55:00
10:15 PM,29.8,29.8,100,30.03,1.0,North,-9999.0,-,N/A,Snow,Snow,0,2013-02-03 03:15:00
10:35 PM,30.2,30.2,100,30.03,1.5,North,-9999.0,-,N/A,Snow,Light Snow,0,2013-02-03 03:35:00
10:55 PM,31.3,30.9,99,30.03,5.0,North,-9999.0,-,N/A,Snow,Light Snow,0,2013-02-03 03:55:00
11:15 PM,30.9,30.6,99,30.03,4.0,North,-9999.0,-,N/A,Snow,Light Snow,0,2013-02-03 04:15:00
11:35 PM,30.4,30.2,99,30.03,2.0,North,-9999.0,-,N/A,Snow,Light Snow,0,2013-02-03 04:35:00
11:55 PM,30.4,30.4,100,30.02,2.0,North,-9999.0,-,N/A,Snow,Light Snow,0,2013-02-03 04:55:00